Terminal Aerodrome Forecast
Issued by NWS New Orleans/Baton Rouge, LA

Current Version | Previous Version | Text Only | Print | Product List | Glossary On
Versions: 1 2 3 4 5 6 7 8 9 10 11 12 13 14 15
000
FTUS44 KLIX 201120
TAFNEW
TAF
KNEW 201120Z 2012/2112 05015KT P6SM SKC
     FM201600 05010KT P6SM SKC
     FM202200 05006KT P6SM FEW250
     FM210000 09007KT P6SM FEW250=

USA.gov is the U.S. government's official web portal to all federal, state and local government web resources and services.